createdAt,value
2019-03-21T00:06:20.414Z,86.30
2019-03-21T00:16:26.831Z,85.10
2019-03-21T00:26:31.470Z,85.40
2019-03-21T00:36:38.578Z,85.40
2019-03-21T00:46:43.030Z,84.90
2019-03-21T00:56:49.062Z,85.30
2019-03-21T01:06:54.133Z,85.40
2019-03-21T01:16:58.516Z,82.10
2019-03-21T01:27:03.128Z,87.00
2019-03-21T01:37:12.985Z,85.50
2019-03-21T01:47:17.291Z,86.30
2019-03-21T01:57:22.341Z,84.20
2019-03-21T02:07:26.705Z,85.50
2019-03-21T02:17:31.120Z,84.90
2019-03-21T02:27:37.059Z,85.10
2019-03-21T02:37:41.789Z,85.20
2019-03-21T02:47:46.250Z,85.40
2019-03-21T02:57:54.226Z,85.50
2019-03-21T03:08:05.150Z,85.50
2019-03-21T03:18:10.107Z,85.60
2019-03-21T03:28:23.670Z,85.80
2019-03-21T03:38:28.211Z,85.10
2019-03-21T03:48:32.896Z,85.60
2019-03-21T03:58:40.547Z,85.80
2019-03-21T04:08:47.272Z,85.70
2019-03-21T04:18:52.015Z,87.30
2019-03-21T04:28:56.747Z,87.30
2019-03-21T04:39:01.432Z,89.60
2019-03-21T04:49:05.830Z,87.10
2019-03-21T04:59:13.608Z,86.80
2019-03-21T05:09:20.410Z,87.50
2019-03-21T05:19:26.616Z,86.50
2019-03-21T05:29:31.593Z,87.40
2019-03-21T05:39:36.487Z,87.60
2019-03-21T05:49:40.909Z,86.60
2019-03-21T05:59:45.325Z,87.20
2019-03-21T06:09:49.736Z,87.50
2019-03-21T06:20:30.914Z,90.20
2019-03-21T06:30:38.025Z,89.60
2019-03-21T06:40:44.969Z,89.90
2019-03-21T06:50:51.200Z,87.30
2019-03-21T07:00:58.386Z,84.90
2019-03-21T07:11:03.972Z,81.70
2019-03-21T07:21:29.339Z,76.30
2019-03-21T07:31:33.516Z,72.50
2019-03-21T07:42:35.884Z,67.00
2019-03-21T07:53:22.113Z,61.90
2019-03-21T08:03:27.067Z,59.40
2019-03-21T08:13:31.468Z,56.60
2019-03-21T08:23:36.093Z,54.90
2019-03-21T08:33:40.503Z,52.00
2019-03-21T08:43:49.361Z,47.90
2019-03-21T08:53:53.765Z,49.30
2019-03-21T09:04:03.902Z,48.10
2019-03-21T09:14:09.011Z,48.20
2019-03-21T09:24:16.759Z,48.20
2019-03-21T09:34:24.738Z,45.40
2019-03-21T09:44:30.396Z,44.70
2019-03-21T09:54:37.200Z,45.90
2019-03-21T10:04:52.708Z,47.40
2019-03-21T10:15:00.259Z,45.40
2019-03-21T10:25:06.980Z,48.00
2019-03-21T10:35:11.493Z,46.40
2019-03-21T10:45:17.122Z,47.30
2019-03-21T10:55:24.826Z,46.90
2019-03-21T11:05:33.539Z,48.30
2019-03-21T11:16:23.827Z,46.30
2019-03-21T11:26:30.913Z,48.90
2019-03-21T11:36:43.116Z,47.00
2019-03-21T11:46:47.900Z,50.20
2019-03-21T11:57:07.885Z,49.50
2019-03-21T12:08:07.550Z,51.40
2019-03-21T12:18:18.019Z,51.80
2019-03-21T12:28:23.358Z,52.90
2019-03-21T12:38:32.250Z,53.90
2019-03-21T12:48:38.926Z,54.20
2019-03-21T12:59:30.743Z,55.80
2019-03-21T13:09:41.788Z,59.50
2019-03-21T13:19:49.293Z,58.40
2019-03-21T13:30:03.874Z,61.80
2019-03-21T13:40:12.571Z,57.10
2019-03-21T13:50:20.176Z,59.80
2019-03-21T14:00:25.055Z,61.40
2019-03-21T14:10:33.926Z,59.20
2019-03-21T14:21:03.429Z,61.90
2019-03-21T14:31:09.427Z,60.10
2019-03-21T14:41:21.529Z,61.60
2019-03-21T14:51:47.086Z,63.60
2019-03-21T15:01:59.179Z,62.20
2019-03-21T15:12:06.090Z,60.50
2019-03-21T15:22:10.557Z,65.20
2019-03-21T15:32:14.992Z,62.00
2019-03-21T15:42:19.708Z,59.90
2019-03-21T15:50:15.269Z,60.80
2019-03-21T15:55:21.413Z,60.60
2019-03-21T16:00:34.324Z,62.10
2019-03-21T16:05:41.020Z,65.20
2019-03-21T16:10:49.496Z,62.20
2019-03-21T16:16:14.114Z,65.40
2019-03-21T16:21:26.695Z,65.20
2019-03-21T16:26:36.519Z,64.10
2019-03-21T16:31:42.652Z,67.00
2019-03-21T16:36:49.982Z,66.80
2019-03-21T16:41:54.254Z,65.30
2019-03-21T16:47:00.508Z,66.60
2019-03-21T16:52:07.702Z,64.50
2019-03-21T16:57:12.197Z,65.90
2019-03-21T17:02:36.984Z,66.40
2019-03-21T17:07:48.947Z,66.60
2019-03-21T17:12:54.028Z,67.10
2019-03-21T17:18:00.599Z,67.30
2019-03-21T17:23:07.096Z,67.70
2019-03-21T17:28:11.465Z,68.20
2019-03-21T17:33:15.792Z,68.90
2019-03-21T17:44:45.438Z,70.60
2019-03-21T17:49:51.206Z,71.40
2019-03-21T17:54:56.987Z,72.50
2019-03-21T18:00:01.394Z,73.20
2019-03-21T18:05:13.883Z,74.10
2019-03-21T18:10:39.045Z,74.50
2019-03-21T18:15:46.552Z,75.10
2019-03-21T18:21:03.349Z,75.90
2019-03-21T18:26:20.135Z,75.90
2019-03-21T18:31:27.607Z,75.50
2019-03-21T18:36:35.329Z,76.00
2019-03-21T18:41:39.613Z,76.30
2019-03-21T18:46:44.562Z,76.80
2019-03-21T18:51:52.216Z,76.90
2019-03-21T18:56:56.534Z,77.10
2019-03-21T19:02:07.359Z,77.70
2019-03-21T19:07:11.684Z,78.30
2019-03-21T19:12:16.165Z,78.70
2019-03-21T19:17:29.806Z,79.20
2019-03-21T19:22:38.135Z,79.20
2019-03-21T19:27:44.344Z,81.10
2019-03-21T19:32:58.072Z,80.90
2019-03-21T19:38:02.530Z,81.40
2019-03-21T19:43:07.513Z,82.80
2019-03-21T19:48:11.937Z,83.00
2019-03-21T19:53:17.064Z,84.10
2019-03-21T19:58:28.174Z,83.60
2019-03-21T20:03:32.185Z,82.40
2019-03-21T20:08:36.606Z,82.50
2019-03-21T20:13:43.799Z,84.20
2019-03-21T20:18:50.672Z,84.10
2019-03-21T20:24:00.385Z,82.50
2019-03-21T20:29:04.786Z,81.70
2019-03-21T20:34:09.346Z,81.70
2019-03-21T20:39:21.263Z,81.70
2019-03-21T20:44:25.955Z,82.00
2019-03-21T20:49:32.236Z,82.60
2019-03-21T20:54:36.821Z,84.70
2019-03-21T20:59:41.831Z,83.90
2019-03-21T21:04:57.593Z,83.30
2019-03-21T21:10:03.533Z,83.30
2019-03-21T21:15:08.441Z,83.80
2019-03-21T21:20:13.002Z,84.50
2019-03-21T21:25:20.720Z,84.20
2019-03-21T21:30:32.489Z,83.90
2019-03-21T21:35:36.899Z,85.20
2019-03-21T21:40:41.615Z,84.40
2019-03-21T21:45:46.490Z,86.90
2019-03-21T21:50:56.929Z,84.60
2019-03-21T21:56:01.542Z,84.30
2019-03-21T22:01:05.987Z,84.80
2019-03-21T22:06:10.596Z,84.90
2019-03-21T22:11:15.257Z,89.40
2019-03-21T22:16:29.717Z,90.70
2019-03-21T22:21:34.323Z,92.10
2019-03-21T22:26:38.863Z,89.40
2019-03-21T22:31:44.923Z,90.80
2019-03-21T22:36:49.844Z,87.20
2019-03-21T22:41:54.588Z,86.20
2019-03-21T22:47:02.899Z,86.00
2019-03-21T22:52:14.250Z,86.10
2019-03-21T22:57:21.386Z,86.10
2019-03-21T23:02:26.063Z,85.40
2019-03-21T23:07:29.985Z,85.20
2019-03-21T23:12:34.322Z,85.80
2019-03-21T23:17:38.924Z,85.00
2019-03-21T23:22:42.239Z,87.00
2019-03-21T23:27:46.944Z,86.20
2019-03-21T23:33:00.875Z,87.20
2019-03-21T23:38:05.279Z,85.10
2019-03-21T23:43:09.941Z,86.40
2019-03-21T23:48:14.766Z,87.60
2019-03-21T23:53:19.121Z,90.00
2019-03-21T23:58:23.418Z,87.60
